Ripple Effect — CFK9060 — position and weather

sailwx.info

Track history (hours):
 
Tides and Currents Weather Stations Pressure Air Temp Water Temp Dewpoint Dewpoint Depression Visibility Wind Speed Wind Dir Waves Ship Positions

Ripple Effect

Last reported at 2015-Aug-29 15:33 UTC. Time now 2015-Sep-04 07:51 UTC.
Position N 49°13' W 122°50'.

Length 10 m.

Type: Pleasure craft. MMSI: 316009045.

Date/timePositionNaut miles runAvg speedWind from/ knotsBaromVisibWave heightAir tempDewpointWater temp
2015-Aug-29 15:33N 49°13' W 122°50'1515.0
2015-Aug-29 14:33N 49°07' W 123°12'5 0.4
2015-Aug-29 02:33N 49°06' W 123°19'0 0.1
2015-Aug-29 01:27N 49°06' W 123°19'0 0.1
2015-Aug-29 00:32N 49°06' W 123°19'3 3.1
2015-Aug-28 23:33N 49°03' W 123°18'3919.5
2015-Aug-28 21:33N 48°24' W 123°19'3 2.8
2015-Aug-28 20:31N 48°25' W 123°23'34 6.7
2015-Aug-28 15:31N 48°27' W 124°14'10 9.7
2015-Aug-28 14:32N 48°33' W 124°25'0 0.0
2015-Aug-28 13:20N 48°33' W 124°25'0 0.0
2015-Aug-28 12:29N 48°33' W 124°25'0 0.0
2015-Aug-28 11:32N 48°33' W 124°25'0 0.0
2015-Aug-28 10:32N 48°33' W 124°25'0 0.0
2015-Aug-28 09:32N 48°33' W 124°25'0 0.0
2015-Aug-28 08:31N 48°33' W 124°25'0 0.0
2015-Aug-28 07:19N 48°33' W 124°25'0 0.0
2015-Aug-28 06:31N 48°33' W 124°25'0 0.0
2015-Aug-28 05:28N 48°33' W 124°25'0 0.0
2015-Aug-28 04:31N 48°33' W 124°25'0 0.0
2015-Aug-28 03:32N 48°33' W 124°25'0 0.0
2015-Aug-28 02:25N 48°33' W 124°25'8 9.5
2015-Aug-28 01:34N 48°34' W 124°37'2 1.4
2015-Aug-28 00:27N 48°34' W 124°39'1 1.4
2015-Aug-27 23:32N 48°34' W 124°41'1 0.2
2015-Aug-27 16:32N 48°34' W 124°39'0 0.3
2015-Aug-27 15:33N 48°34' W 124°40'1 1.4
2015-Aug-27 14:33N 48°34' W 124°38'9 8.5
2015-Aug-27 13:33N 48°33' W 124°25'0 0.0
2015-Aug-27 12:29N 48°33' W 124°25'0 0.0
2015-Aug-27 11:32N 48°33' W 124°25'0 0.0
2015-Aug-27 10:32N 48°33' W 124°25'0 0.0
2015-Aug-27 09:33N 48°33' W 124°25'0 0.0
2015-Aug-27 08:30N 48°33' W 124°25'0 0.0
2015-Aug-27 07:33N 48°33' W 124°25'0 0.0
2015-Aug-27 06:33N 48°33' W 124°25'0 0.0
2015-Aug-27 05:27N 48°33' W 124°25'0 0.0
2015-Aug-27 04:30N 48°33' W 124°25'0 0.0
2015-Aug-27 03:33N 48°33' W 124°25'0 0.0
2015-Aug-27 02:33N 48°33' W 124°25'0 0.0
2015-Aug-27 01:33N 48°33' W 124°25'1 1.0
2015-Aug-27 00:33N 48°33' W 124°26'  
2015-Aug-22 22:33N 48°26' W 123°17'2822.3
2015-Aug-22 21:17N 48°54' W 123°18'1418.1
2015-Aug-22 20:32N 49°07' W 123°09'2020.7
2015-Aug-22 19:33N 49°12' W 122°39'  
Track history (hours):
 
Tides and Currents Weather Stations Pressure Air Temp Water Temp Dewpoint Dewpoint Depression Visibility Wind Speed Wind Dir Waves Ship Positions

Ripple Effect

Last reported at 2015-Aug-29 15:33 UTC. Time now 2015-Sep-04 07:51 UTC.
Position N 49°13' W 122°50'.

Length 10 m.

Type: Pleasure craft. MMSI: 316009045.

Date/timePositionNaut miles runAvg speedWind from/ knotsBaromVisibWave heightAir tempDewpointWater temp
2015-Aug-29 15:33N 49°13' W 122°50'1515.0
2015-Aug-29 14:33N 49°07' W 123°12'5 0.4
2015-Aug-29 02:33N 49°06' W 123°19'0 0.1
2015-Aug-29 01:27N 49°06' W 123°19'0 0.1
2015-Aug-29 00:32N 49°06' W 123°19'3 3.1
2015-Aug-28 23:33N 49°03' W 123°18'3919.5
2015-Aug-28 21:33N 48°24' W 123°19'3 2.8
2015-Aug-28 20:31N 48°25' W 123°23'34 6.7
2015-Aug-28 15:31N 48°27' W 124°14'10 9.7
2015-Aug-28 14:32N 48°33' W 124°25'0 0.0
2015-Aug-28 13:20N 48°33' W 124°25'0 0.0
2015-Aug-28 12:29N 48°33' W 124°25'0 0.0
2015-Aug-28 11:32N 48°33' W 124°25'0 0.0
2015-Aug-28 10:32N 48°33' W 124°25'0 0.0
2015-Aug-28 09:32N 48°33' W 124°25'0 0.0
2015-Aug-28 08:31N 48°33' W 124°25'0 0.0
2015-Aug-28 07:19N 48°33' W 124°25'0 0.0
2015-Aug-28 06:31N 48°33' W 124°25'0 0.0
2015-Aug-28 05:28N 48°33' W 124°25'0 0.0
2015-Aug-28 04:31N 48°33' W 124°25'0 0.0
2015-Aug-28 03:32N 48°33' W 124°25'0 0.0
2015-Aug-28 02:25N 48°33' W 124°25'8 9.5
2015-Aug-28 01:34N 48°34' W 124°37'2 1.4
2015-Aug-28 00:27N 48°34' W 124°39'1 1.4
2015-Aug-27 23:32N 48°34' W 124°41'1 0.2
2015-Aug-27 16:32N 48°34' W 124°39'0 0.3
2015-Aug-27 15:33N 48°34' W 124°40'1 1.4
2015-Aug-27 14:33N 48°34' W 124°38'9 8.5
2015-Aug-27 13:33N 48°33' W 124°25'0 0.0
2015-Aug-27 12:29N 48°33' W 124°25'0 0.0
2015-Aug-27 11:32N 48°33' W 124°25'0 0.0
2015-Aug-27 10:32N 48°33' W 124°25'0 0.0
2015-Aug-27 09:33N 48°33' W 124°25'0 0.0
2015-Aug-27 08:30N 48°33' W 124°25'0 0.0
2015-Aug-27 07:33N 48°33' W 124°25'0 0.0
2015-Aug-27 06:33N 48°33' W 124°25'0 0.0
2015-Aug-27 05:27N 48°33' W 124°25'0 0.0
2015-Aug-27 04:30N 48°33' W 124°25'0 0.0
2015-Aug-27 03:33N 48°33' W 124°25'0 0.0
2015-Aug-27 02:33N 48°33' W 124°25'0 0.0
2015-Aug-27 01:33N 48°33' W 124°25'1 1.0
2015-Aug-27 00:33N 48°33' W 124°26'  
2015-Aug-22 22:33N 48°26' W 123°17'2822.3
2015-Aug-22 21:17N 48°54' W 123°18'1418.1
2015-Aug-22 20:32N 49°07' W 123°09'2020.7
2015-Aug-22 19:33N 49°12' W 122°39'  

Dump ship's entire track history